sensor_id;sensor_type;location;lat;lon;timestamp;P1;durP1;ratioP1;P2;durP2;ratioP2
38609;SDS011;24367;51.640;9.566;2022-12-29T00:01:37;2.63;;;1.05;;
38609;SDS011;24367;51.640;9.566;2022-12-29T00:04:04;3.30;;;1.10;;
38609;SDS011;24367;51.640;9.566;2022-12-29T00:06:30;2.13;;;1.13;;
38609;SDS011;24367;51.640;9.566;2022-12-29T00:08:57;1.63;;;0.90;;
38609;SDS011;24367;51.640;9.566;2022-12-29T00:11:26;2.88;;;0.98;;
38609;SDS011;24367;51.640;9.566;2022-12-29T00:13:53;2.15;;;0.95;;
38609;SDS011;24367;51.640;9.566;2022-12-29T00:16:37;3.22;;;0.88;;
38609;SDS011;24367;51.640;9.566;2022-12-29T00:19:04;4.43;;;1.13;;
38609;SDS011;24367;51.640;9.566;2022-12-29T00:21:31;3.05;;;0.98;;
38609;SDS011;24367;51.640;9.566;2022-12-29T00:24:16;2.10;;;0.98;;
38609;SDS011;24367;51.640;9.566;2022-12-29T00:27:10;1.75;;;0.98;;
38609;SDS011;24367;51.640;9.566;2022-12-29T00:29:55;2.20;;;0.70;;
38609;SDS011;24367;51.640;9.566;2022-12-29T00:32:48;2.47;;;0.90;;
38609;SDS011;24367;51.640;9.566;2022-12-29T00:35:36;1.27;;;0.80;;
38609;SDS011;24367;51.640;9.566;2022-12-29T00:38:06;2.40;;;1.10;;
38609;SDS011;24367;51.640;9.566;2022-12-29T00:40:51;2.13;;;1.00;;
38609;SDS011;24367;51.640;9.566;2022-12-29T00:43:36;1.98;;;1.10;;
38609;SDS011;24367;51.640;9.566;2022-12-29T00:46:20;1.65;;;0.80;;
38609;SDS011;24367;51.640;9.566;2022-12-29T00:48:47;2.47;;;0.98;;
38609;SDS011;24367;51.640;9.566;2022-12-29T00:51:31;2.50;;;1.17;;
38609;SDS011;24367;51.640;9.566;2022-12-29T00:53:58;1.58;;;0.65;;
38609;SDS011;24367;51.640;9.566;2022-12-29T00:56:24;3.15;;;1.33;;
38609;SDS011;24367;51.640;9.566;2022-12-29T00:58:52;2.22;;;0.88;;
38609;SDS011;24367;51.640;9.566;2022-12-29T01:01:19;1.90;;;0.80;;
38609;SDS011;24367;51.640;9.566;2022-12-29T01:03:47;1.65;;;0.90;;
38609;SDS011;24367;51.640;9.566;2022-12-29T01:06:15;1.27;;;0.82;;
38609;SDS011;24367;51.640;9.566;2022-12-29T01:08:44;2.20;;;0.70;;
38609;SDS011;24367;51.640;9.566;2022-12-29T01:11:13;3.90;;;1.48;;
38609;SDS011;24367;51.640;9.566;2022-12-29T01:13:40;2.22;;;0.90;;
38609;SDS011;24367;51.640;9.566;2022-12-29T01:16:12;1.75;;;0.80;;
38609;SDS011;24367;51.640;9.566;2022-12-29T01:18:40;1.65;;;0.82;;
38609;SDS011;24367;51.640;9.566;2022-12-29T01:21:08;3.33;;;1.15;;
38609;SDS011;24367;51.640;9.566;2022-12-29T01:23:36;1.30;;;0.70;;
38609;SDS011;24367;51.640;9.566;2022-12-29T01:26:08;1.63;;;0.70;;
38609;SDS011;24367;51.640;9.566;2022-12-29T01:28:35;3.33;;;0.90;;
38609;SDS011;24367;51.640;9.566;2022-12-29T01:31:03;1.65;;;0.77;;
38609;SDS011;24367;51.640;9.566;2022-12-29T01:33:31;1.58;;;0.80;;
38609;SDS011;24367;51.640;9.566;2022-12-29T01:35:59;1.73;;;0.70;;
38609;SDS011;24367;51.640;9.566;2022-12-29T01:38:26;1.70;;;0.95;;
38609;SDS011;24367;51.640;9.566;2022-12-29T01:40:52;1.73;;;0.85;;
38609;SDS011;24367;51.640;9.566;2022-12-29T01:43:18;1.88;;;0.85;;
38609;SDS011;24367;51.640;9.566;2022-12-29T01:45:45;1.65;;;0.70;;
38609;SDS011;24367;51.640;9.566;2022-12-29T01:48:14;2.92;;;0.98;;
38609;SDS011;24367;51.640;9.566;2022-12-29T01:50:43;2.08;;;0.85;;
38609;SDS011;24367;51.640;9.566;2022-12-29T01:53:13;1.80;;;0.95;;
38609;SDS011;24367;51.640;9.566;2022-12-29T01:55:42;1.83;;;0.80;;
38609;SDS011;24367;51.640;9.566;2022-12-29T01:58:10;2.25;;;0.88;;
38609;SDS011;24367;51.640;9.566;2022-12-29T02:00:39;1.30;;;0.70;;
38609;SDS011;24367;51.640;9.566;2022-12-29T02:03:06;1.70;;;0.75;;
38609;SDS011;24367;51.640;9.566;2022-12-29T02:05:36;1.92;;;0.93;;
38609;SDS011;24367;51.640;9.566;2022-12-29T02:08:07;1.42;;;0.85;;
38609;SDS011;24367;51.640;9.566;2022-12-29T02:10:34;1.35;;;0.70;;
38609;SDS011;24367;51.640;9.566;2022-12-29T02:13:01;1.02;;;0.63;;
38609;SDS011;24367;51.640;9.566;2022-12-29T02:15:39;2.20;;;1.08;;
38609;SDS011;24367;51.640;9.566;2022-12-29T02:18:18;2.05;;;0.80;;
38609;SDS011;24367;51.640;9.566;2022-12-29T02:21:04;1.50;;;0.88;;
38609;SDS011;24367;51.640;9.566;2022-12-29T02:23:52;1.88;;;1.10;;
38609;SDS011;24367;51.640;9.566;2022-12-29T02:32:03;3.28;;;0.93;;
38609;SDS011;24367;51.640;9.566;2022-12-29T02:34:34;1.50;;;0.65;;
38609;SDS011;24367;51.640;9.566;2022-12-29T02:37:06;1.40;;;0.80;;
38609;SDS011;24367;51.640;9.566;2022-12-29T02:39:38;1.30;;;0.70;;
38609;SDS011;24367;51.640;9.566;2022-12-29T02:42:08;1.48;;;0.70;;
38609;SDS011;24367;51.640;9.566;2022-12-29T02:44:42;1.27;;;0.60;;
38609;SDS011;24367;51.640;9.566;2022-12-29T02:47:20;1.58;;;0.98;;
38609;SDS011;24367;51.640;9.566;2022-12-29T02:49:51;2.22;;;1.02;;
38609;SDS011;24367;51.640;9.566;2022-12-29T02:52:24;1.42;;;0.73;;
38609;SDS011;24367;51.640;9.566;2022-12-29T02:54:54;1.70;;;0.70;;
38609;SDS011;24367;51.640;9.566;2022-12-29T02:57:28;1.10;;;0.65;;
38609;SDS011;24367;51.640;9.566;2022-12-29T02:59:57;1.55;;;0.85;;
38609;SDS011;24367;51.640;9.566;2022-12-29T03:02:32;1.08;;;0.70;;
38609;SDS011;24367;51.640;9.566;2022-12-29T03:05:15;1.05;;;0.63;;
38609;SDS011;24367;51.640;9.566;2022-12-29T03:07:47;1.38;;;0.70;;
38609;SDS011;24367;51.640;9.566;2022-12-29T03:10:22;1.58;;;0.90;;
38609;SDS011;24367;51.640;9.566;2022-12-29T03:12:56;1.45;;;0.80;;
38609;SDS011;24367;51.640;9.566;2022-12-29T03:15:52;1.80;;;0.85;;
38609;SDS011;24367;51.640;9.566;2022-12-29T03:18:36;1.00;;;0.60;;
38609;SDS011;24367;51.640;9.566;2022-12-29T03:21:06;1.48;;;0.82;;
38609;SDS011;24367;51.640;9.566;2022-12-29T03:23:35;1.13;;;0.63;;
38609;SDS011;24367;51.640;9.566;2022-12-29T03:26:06;1.85;;;0.80;;
38609;SDS011;24367;51.640;9.566;2022-12-29T03:28:35;1.38;;;0.75;;
38609;SDS011;24367;51.640;9.566;2022-12-29T03:31:04;2.30;;;0.60;;
38609;SDS011;24367;51.640;9.566;2022-12-29T03:33:32;1.27;;;0.65;;
38609;SDS011;24367;51.640;9.566;2022-12-29T03:36:03;1.90;;;0.70;;
38609;SDS011;24367;51.640;9.566;2022-12-29T03:38:33;1.80;;;0.80;;
38609;SDS011;24367;51.640;9.566;2022-12-29T03:41:03;1.00;;;0.60;;
38609;SDS011;24367;51.640;9.566;2022-12-29T03:43:32;1.35;;;0.75;;
38609;SDS011;24367;51.640;9.566;2022-12-29T03:46:00;1.35;;;0.80;;
38609;SDS011;24367;51.640;9.566;2022-12-29T03:48:27;1.92;;;0.82;;
38609;SDS011;24367;51.640;9.566;2022-12-29T03:50:54;1.45;;;0.70;;
38609;SDS011;24367;51.640;9.566;2022-12-29T03:53:23;1.45;;;0.82;;
38609;SDS011;24367;51.640;9.566;2022-12-29T03:55:49;1.85;;;0.82;;
38609;SDS011;24367;51.640;9.566;2022-12-29T03:58:16;1.30;;;0.88;;
38609;SDS011;24367;51.640;9.566;2022-12-29T04:01:07;0.80;;;0.55;;
38609;SDS011;24367;51.640;9.566;2022-12-29T04:03:36;1.05;;;0.70;;
38609;SDS011;24367;51.640;9.566;2022-12-29T04:06:03;1.00;;;0.60;;
38609;SDS011;24367;51.640;9.566;2022-12-29T04:08:39;0.93;;;0.65;;
38609;SDS011;24367;51.640;9.566;2022-12-29T04:11:05;1.50;;;0.80;;
38609;SDS011;24367;51.640;9.566;2022-12-29T04:13:32;1.33;;;0.60;;
38609;SDS011;24367;51.640;9.566;2022-12-29T04:15:58;1.30;;;0.77;;
38609;SDS011;24367;51.640;9.566;2022-12-29T04:18:26;1.45;;;0.70;;
38609;SDS011;24367;51.640;9.566;2022-12-29T04:20:52;1.33;;;0.73;;
38609;SDS011;24367;51.640;9.566;2022-12-29T04:23:31;1.10;;;0.75;;
38609;SDS011;24367;51.640;9.566;2022-12-29T04:25:59;1.40;;;0.70;;
38609;SDS011;24367;51.640;9.566;2022-12-29T04:28:27;1.42;;;0.82;;
38609;SDS011;24367;51.640;9.566;2022-12-29T04:31:11;1.35;;;0.68;;
38609;SDS011;24367;51.640;9.566;2022-12-29T04:33:40;1.52;;;0.80;;
38609;SDS011;24367;51.640;9.566;2022-12-29T04:36:06;1.23;;;0.70;;
38609;SDS011;24367;51.640;9.566;2022-12-29T04:38:34;1.60;;;0.80;;
38609;SDS011;24367;51.640;9.566;2022-12-29T04:41:04;1.13;;;0.68;;
38609;SDS011;24367;51.640;9.566;2022-12-29T04:43:32;0.90;;;0.60;;
38609;SDS011;24367;51.640;9.566;2022-12-29T04:46:13;1.60;;;0.70;;
38609;SDS011;24367;51.640;9.566;2022-12-29T04:48:48;1.25;;;0.80;;
38609;SDS011;24367;51.640;9.566;2022-12-29T04:51:27;2.17;;;0.60;;
38609;SDS011;24367;51.640;9.566;2022-12-29T04:53:53;1.10;;;0.60;;
38609;SDS011;24367;51.640;9.566;2022-12-29T04:56:23;1.15;;;0.77;;
38609;SDS011;24367;51.640;9.566;2022-12-29T04:58:50;1.48;;;0.70;;
38609;SDS011;24367;51.640;9.566;2022-12-29T05:01:19;1.20;;;0.70;;
38609;SDS011;24367;51.640;9.566;2022-12-29T05:03:45;1.20;;;0.70;;
38609;SDS011;24367;51.640;9.566;2022-12-29T05:06:12;1.52;;;0.70;;
38609;SDS011;24367;51.640;9.566;2022-12-29T05:08:38;1.60;;;0.80;;
38609;SDS011;24367;51.640;9.566;2022-12-29T05:11:05;1.90;;;0.90;;
38609;SDS011;24367;51.640;9.566;2022-12-29T05:13:32;1.33;;;0.88;;
38609;SDS011;24367;51.640;9.566;2022-12-29T05:15:59;1.27;;;0.60;;
38609;SDS011;24367;51.640;9.566;2022-12-29T05:18:26;1.10;;;0.60;;
38609;SDS011;24367;51.640;9.566;2022-12-29T05:20:53;1.15;;;0.70;;
38609;SDS011;24367;51.640;9.566;2022-12-29T05:23:21;1.50;;;0.60;;
38609;SDS011;24367;51.640;9.566;2022-12-29T05:25:54;0.80;;;0.50;;
38609;SDS011;24367;51.640;9.566;2022-12-29T05:28:28;0.93;;;0.50;;
38609;SDS011;24367;51.640;9.566;2022-12-29T05:31:01;1.17;;;0.63;;
38609;SDS011;24367;51.640;9.566;2022-12-29T05:33:29;0.68;;;0.43;;
38609;SDS011;24367;51.640;9.566;2022-12-29T05:35:56;1.13;;;0.63;;
38609;SDS011;24367;51.640;9.566;2022-12-29T05:38:23;1.77;;;0.90;;
38609;SDS011;24367;51.640;9.566;2022-12-29T05:40:49;1.50;;;0.70;;
38609;SDS011;24367;51.640;9.566;2022-12-29T05:43:35;1.98;;;0.80;;
38609;SDS011;24367;51.640;9.566;2022-12-29T05:46:28;1.20;;;0.80;;
38609;SDS011;24367;51.640;9.566;2022-12-29T05:49:10;0.98;;;0.68;;
38609;SDS011;24367;51.640;9.566;2022-12-29T05:51:51;2.08;;;0.80;;
38609;SDS011;24367;51.640;9.566;2022-12-29T05:54:17;1.00;;;0.55;;
38609;SDS011;24367;51.640;9.566;2022-12-29T05:56:44;1.48;;;0.80;;
38609;SDS011;24367;51.640;9.566;2022-12-29T05:59:11;1.13;;;0.60;;
38609;SDS011;24367;51.640;9.566;2022-12-29T06:01:39;1.90;;;0.60;;
38609;SDS011;24367;51.640;9.566;2022-12-29T06:04:06;0.88;;;0.57;;
38609;SDS011;24367;51.640;9.566;2022-12-29T06:06:32;1.15;;;0.70;;
38609;SDS011;24367;51.640;9.566;2022-12-29T06:08:59;1.40;;;0.60;;
38609;SDS011;24367;51.640;9.566;2022-12-29T06:11:25;1.23;;;0.60;;
38609;SDS011;24367;51.640;9.566;2022-12-29T06:13:55;1.60;;;0.70;;
38609;SDS011;24367;51.640;9.566;2022-12-29T06:16:23;1.13;;;0.60;;
38609;SDS011;24367;51.640;9.566;2022-12-29T06:18:54;0.90;;;0.55;;
38609;SDS011;24367;51.640;9.566;2022-12-29T06:21:21;1.25;;;0.68;;
38609;SDS011;24367;51.640;9.566;2022-12-29T06:23:47;1.13;;;0.73;;
38609;SDS011;24367;51.640;9.566;2022-12-29T06:26:14;1.10;;;0.63;;
38609;SDS011;24367;51.640;9.566;2022-12-29T06:28:40;1.05;;;0.60;;
38609;SDS011;24367;51.640;9.566;2022-12-29T06:31:08;1.00;;;0.65;;
38609;SDS011;24367;51.640;9.566;2022-12-29T06:33:35;1.27;;;0.70;;
38609;SDS011;24367;51.640;9.566;2022-12-29T06:36:02;0.70;;;0.60;;
38609;SDS011;24367;51.640;9.566;2022-12-29T06:38:29;0.85;;;0.60;;
38609;SDS011;24367;51.640;9.566;2022-12-29T06:40:57;1.38;;;0.60;;
38609;SDS011;24367;51.640;9.566;2022-12-29T06:43:36;1.33;;;0.70;;
38609;SDS011;24367;51.640;9.566;2022-12-29T06:46:23;1.15;;;0.60;;
38609;SDS011;24367;51.640;9.566;2022-12-29T06:48:49;1.70;;;0.77;;
38609;SDS011;24367;51.640;9.566;2022-12-29T06:51:17;1.23;;;0.70;;
38609;SDS011;24367;51.640;9.566;2022-12-29T06:53:43;1.48;;;0.70;;
38609;SDS011;24367;51.640;9.566;2022-12-29T06:56:10;0.95;;;0.65;;
38609;SDS011;24367;51.640;9.566;2022-12-29T06:58:36;1.20;;;0.60;;
38609;SDS011;24367;51.640;9.566;2022-12-29T07:01:03;0.73;;;0.55;;
38609;SDS011;24367;51.640;9.566;2022-12-29T07:03:29;1.42;;;0.60;;
38609;SDS011;24367;51.640;9.566;2022-12-29T07:05:56;1.08;;;0.50;;
38609;SDS011;24367;51.640;9.566;2022-12-29T07:08:24;0.90;;;0.50;;
38609;SDS011;24367;51.640;9.566;2022-12-29T07:10:51;1.00;;;0.60;;
38609;SDS011;24367;51.640;9.566;2022-12-29T07:13:17;0.90;;;0.60;;
38609;SDS011;24367;51.640;9.566;2022-12-29T07:15:43;0.73;;;0.50;;
38609;SDS011;24367;51.640;9.566;2022-12-29T07:18:10;0.77;;;0.60;;
38609;SDS011;24367;51.640;9.566;2022-12-29T07:20:36;1.00;;;0.60;;
38609;SDS011;24367;51.640;9.566;2022-12-29T07:23:03;0.77;;;0.60;;
38609;SDS011;24367;51.640;9.566;2022-12-29T07:25:31;1.25;;;0.70;;
38609;SDS011;24367;51.640;9.566;2022-12-29T07:27:57;1.33;;;0.60;;
38609;SDS011;24367;51.640;9.566;2022-12-29T07:30:23;0.95;;;0.57;;
38609;SDS011;24367;51.640;9.566;2022-12-29T07:32:50;1.38;;;0.50;;
38609;SDS011;24367;51.640;9.566;2022-12-29T07:35:16;1.13;;;0.52;;
38609;SDS011;24367;51.640;9.566;2022-12-29T07:37:43;1.02;;;0.60;;
38609;SDS011;24367;51.640;9.566;2022-12-29T07:40:09;0.95;;;0.50;;
38609;SDS011;24367;51.640;9.566;2022-12-29T07:42:39;1.88;;;0.75;;
38609;SDS011;24367;51.640;9.566;2022-12-29T07:45:08;0.82;;;0.57;;
38609;SDS011;24367;51.640;9.566;2022-12-29T07:47:47;0.82;;;0.60;;
38609;SDS011;24367;51.640;9.566;2022-12-29T07:50:15;0.90;;;0.50;;
38609;SDS011;24367;51.640;9.566;2022-12-29T07:52:41;1.00;;;0.60;;
38609;SDS011;24367;51.640;9.566;2022-12-29T07:55:08;1.00;;;0.63;;
38609;SDS011;24367;51.640;9.566;2022-12-29T07:57:34;1.02;;;0.60;;
38609;SDS011;24367;51.640;9.566;2022-12-29T08:00:02;0.77;;;0.40;;
38609;SDS011;24367;51.640;9.566;2022-12-29T08:02:37;0.95;;;0.60;;
38609;SDS011;24367;51.640;9.566;2022-12-29T08:05:03;1.08;;;0.50;;
38609;SDS011;24367;51.640;9.566;2022-12-29T08:07:30;0.77;;;0.47;;
38609;SDS011;24367;51.640;9.566;2022-12-29T08:09:57;0.75;;;0.50;;
38609;SDS011;24367;51.640;9.566;2022-12-29T08:12:23;1.23;;;0.70;;
38609;SDS011;24367;51.640;9.566;2022-12-29T08:14:50;1.15;;;0.65;;
38609;SDS011;24367;51.640;9.566;2022-12-29T08:17:18;0.90;;;0.50;;
38609;SDS011;24367;51.640;9.566;2022-12-29T08:19:44;1.00;;;0.60;;
38609;SDS011;24367;51.640;9.566;2022-12-29T08:22:12;1.13;;;0.60;;
38609;SDS011;24367;51.640;9.566;2022-12-29T08:24:39;1.60;;;0.60;;
38609;SDS011;24367;51.640;9.566;2022-12-29T08:27:06;1.08;;;0.60;;
38609;SDS011;24367;51.640;9.566;2022-12-29T08:29:33;9.40;;;0.90;;
38609;SDS011;24367;51.640;9.566;2022-12-29T08:32:01;3.72;;;0.68;;
38609;SDS011;24367;51.640;9.566;2022-12-29T08:34:31;1.00;;;0.50;;
38609;SDS011;24367;51.640;9.566;2022-12-29T08:36:58;1.27;;;0.60;;
38609;SDS011;24367;51.640;9.566;2022-12-29T08:39:26;0.98;;;0.52;;
38609;SDS011;24367;51.640;9.566;2022-12-29T08:41:56;1.83;;;0.50;;
38609;SDS011;24367;51.640;9.566;2022-12-29T08:44:23;0.65;;;0.45;;
38609;SDS011;24367;51.640;9.566;2022-12-29T08:46:50;1.73;;;0.60;;
38609;SDS011;24367;51.640;9.566;2022-12-29T08:49:17;1.75;;;0.52;;
38609;SDS011;24367;51.640;9.566;2022-12-29T08:51:46;1.52;;;0.57;;
38609;SDS011;24367;51.640;9.566;2022-12-29T08:54:13;0.73;;;0.40;;
38609;SDS011;24367;51.640;9.566;2022-12-29T08:56:40;3.15;;;0.60;;
38609;SDS011;24367;51.640;9.566;2022-12-29T08:59:07;2.42;;;0.52;;
38609;SDS011;24367;51.640;9.566;2022-12-29T09:01:34;3.25;;;0.70;;
38609;SDS011;24367;51.640;9.566;2022-12-29T09:04:01;11.27;;;2.47;;
38609;SDS011;24367;51.640;9.566;2022-12-29T09:06:28;7.25;;;1.38;;
38609;SDS011;24367;51.640;9.566;2022-12-29T09:08:56;5.90;;;1.55;;
38609;SDS011;24367;51.640;9.566;2022-12-29T09:11:23;3.03;;;0.90;;
38609;SDS011;24367;51.640;9.566;2022-12-29T09:13:50;4.65;;;1.10;;
38609;SDS011;24367;51.640;9.566;2022-12-29T09:16:17;6.80;;;1.00;;
38609;SDS011;24367;51.640;9.566;2022-12-29T09:18:46;5.55;;;1.00;;
38609;SDS011;24367;51.640;9.566;2022-12-29T09:21:12;3.92;;;0.85;;
38609;SDS011;24367;51.640;9.566;2022-12-29T09:23:39;3.45;;;0.90;;
38609;SDS011;24367;51.640;9.566;2022-12-29T09:26:07;2.15;;;0.75;;
38609;SDS011;24367;51.640;9.566;2022-12-29T09:28:34;6.28;;;1.20;;
38609;SDS011;24367;51.640;9.566;2022-12-29T09:31:01;9.40;;;1.02;;
38609;SDS011;24367;51.640;9.566;2022-12-29T09:33:28;5.05;;;1.13;;
38609;SDS011;24367;51.640;9.566;2022-12-29T09:35:56;6.35;;;1.25;;
38609;SDS011;24367;51.640;9.566;2022-12-29T09:38:23;8.02;;;1.05;;
38609;SDS011;24367;51.640;9.566;2022-12-29T09:40:51;3.35;;;0.85;;
38609;SDS011;24367;51.640;9.566;2022-12-29T09:43:42;4.68;;;1.00;;
38609;SDS011;24367;51.640;9.566;2022-12-29T09:46:14;12.25;;;1.10;;
38609;SDS011;24367;51.640;9.566;2022-12-29T09:48:45;3.97;;;0.80;;
38609;SDS011;24367;51.640;9.566;2022-12-29T09:51:15;7.18;;;1.10;;
38609;SDS011;24367;51.640;9.566;2022-12-29T09:53:43;3.17;;;0.80;;
38609;SDS011;24367;51.640;9.566;2022-12-29T09:56:13;5.90;;;1.00;;
38609;SDS011;24367;51.640;9.566;2022-12-29T09:58:44;3.20;;;0.90;;
38609;SDS011;24367;51.640;9.566;2022-12-29T10:01:17;3.03;;;0.77;;
38609;SDS011;24367;51.640;9.566;2022-12-29T10:03:51;3.75;;;0.80;;
38609;SDS011;24367;51.640;9.566;2022-12-29T10:06:20;3.72;;;0.68;;
38609;SDS011;24367;51.640;9.566;2022-12-29T10:08:50;3.65;;;0.90;;
38609;SDS011;24367;51.640;9.566;2022-12-29T10:13:59;4.18;;;0.98;;
38609;SDS011;24367;51.640;9.566;2022-12-29T10:16:34;3.90;;;0.80;;
38609;SDS011;24367;51.640;9.566;2022-12-29T10:19:09;3.30;;;0.73;;
38609;SDS011;24367;51.640;9.566;2022-12-29T10:21:48;1.98;;;0.70;;
38609;SDS011;24367;51.640;9.566;2022-12-29T10:24:22;4.25;;;0.82;;
38609;SDS011;24367;51.640;9.566;2022-12-29T10:26:51;2.83;;;0.65;;
38609;SDS011;24367;51.640;9.566;2022-12-29T10:29:19;4.95;;;0.93;;
38609;SDS011;24367;51.640;9.566;2022-12-29T10:31:47;2.88;;;0.77;;
38609;SDS011;24367;51.640;9.566;2022-12-29T10:34:17;3.75;;;0.73;;
38609;SDS011;24367;51.640;9.566;2022-12-29T10:36:48;3.88;;;0.75;;
38609;SDS011;24367;51.640;9.566;2022-12-29T10:39:16;5.25;;;0.70;;
38609;SDS011;24367;51.640;9.566;2022-12-29T10:41:48;3.40;;;0.70;;
38609;SDS011;24367;51.640;9.566;2022-12-29T10:44:16;3.17;;;0.88;;
38609;SDS011;24367;51.640;9.566;2022-12-29T10:46:45;3.10;;;0.70;;
38609;SDS011;24367;51.640;9.566;2022-12-29T10:49:17;2.97;;;0.80;;
38609;SDS011;24367;51.640;9.566;2022-12-29T10:51:46;3.70;;;1.00;;
38609;SDS011;24367;51.640;9.566;2022-12-29T10:54:14;2.30;;;0.90;;
38609;SDS011;24367;51.640;9.566;2022-12-29T10:56:43;2.65;;;0.80;;
38609;SDS011;24367;51.640;9.566;2022-12-29T10:59:13;3.25;;;1.02;;
38609;SDS011;24367;51.640;9.566;2022-12-29T11:01:46;4.13;;;0.85;;
38609;SDS011;24367;51.640;9.566;2022-12-29T11:07:07;4.00;;;0.80;;
38609;SDS011;24367;51.640;9.566;2022-12-29T11:09:35;3.00;;;0.68;;
38609;SDS011;24367;51.640;9.566;2022-12-29T11:12:15;3.40;;;0.80;;
38609;SDS011;24367;51.640;9.566;2022-12-29T11:14:45;2.83;;;1.10;;
38609;SDS011;24367;51.640;9.566;2022-12-29T11:17:14;3.70;;;0.65;;
38609;SDS011;24367;51.640;9.566;2022-12-29T11:19:41;2.70;;;0.68;;
38609;SDS011;24367;51.640;9.566;2022-12-29T11:22:17;1.92;;;0.88;;
38609;SDS011;24367;51.640;9.566;2022-12-29T11:24:48;2.40;;;0.55;;
38609;SDS011;24367;51.640;9.566;2022-12-29T11:27:16;2.53;;;0.60;;
38609;SDS011;24367;51.640;9.566;2022-12-29T11:29:44;1.50;;;0.55;;
38609;SDS011;24367;51.640;9.566;2022-12-29T11:32:11;1.92;;;0.60;;
38609;SDS011;24367;51.640;9.566;2022-12-29T11:34:43;1.80;;;0.60;;
38609;SDS011;24367;51.640;9.566;2022-12-29T11:37:11;1.52;;;0.50;;
38609;SDS011;24367;51.640;9.566;2022-12-29T11:39:40;3.75;;;1.38;;
38609;SDS011;24367;51.640;9.566;2022-12-29T11:42:12;1.15;;;0.50;;
38609;SDS011;24367;51.640;9.566;2022-12-29T11:44:42;3.25;;;0.75;;
38609;SDS011;24367;51.640;9.566;2022-12-29T11:47:13;1.65;;;0.70;;
38609;SDS011;24367;51.640;9.566;2022-12-29T11:49:50;1.63;;;0.80;;
38609;SDS011;24367;51.640;9.566;2022-12-29T11:52:20;2.42;;;0.70;;
38609;SDS011;24367;51.640;9.566;2022-12-29T11:54:48;3.05;;;0.68;;
38609;SDS011;24367;51.640;9.566;2022-12-29T11:57:15;1.15;;;0.60;;
38609;SDS011;24367;51.640;9.566;2022-12-29T11:59:43;2.25;;;0.70;;
38609;SDS011;24367;51.640;9.566;2022-12-29T12:05:03;2.85;;;0.68;;
38609;SDS011;24367;51.640;9.566;2022-12-29T12:07:37;1.33;;;0.50;;
38609;SDS011;24367;51.640;9.566;2022-12-29T12:10:06;1.98;;;0.70;;
38609;SDS011;24367;51.640;9.566;2022-12-29T12:12:41;5.30;;;0.70;;
38609;SDS011;24367;51.640;9.566;2022-12-29T12:15:13;1.00;;;0.52;;
38609;SDS011;24367;51.640;9.566;2022-12-29T12:17:52;2.22;;;0.63;;
38609;SDS011;24367;51.640;9.566;2022-12-29T12:20:21;1.60;;;0.60;;
38609;SDS011;24367;51.640;9.566;2022-12-29T12:22:53;1.60;;;0.60;;
38609;SDS011;24367;51.640;9.566;2022-12-29T12:25:25;0.85;;;0.45;;
38609;SDS011;24367;51.640;9.566;2022-12-29T12:27:56;1.77;;;0.70;;
38609;SDS011;24367;51.640;9.566;2022-12-29T12:30:25;2.40;;;0.70;;
38609;SDS011;24367;51.640;9.566;2022-12-29T12:32:56;1.05;;;0.45;;
38609;SDS011;24367;51.640;9.566;2022-12-29T12:35:26;1.20;;;0.60;;
38609;SDS011;24367;51.640;9.566;2022-12-29T12:38:00;1.33;;;0.60;;
38609;SDS011;24367;51.640;9.566;2022-12-29T12:40:45;2.58;;;0.60;;
38609;SDS011;24367;51.640;9.566;2022-12-29T12:43:28;1.15;;;0.60;;
38609;SDS011;24367;51.640;9.566;2022-12-29T12:46:05;2.22;;;0.63;;
38609;SDS011;24367;51.640;9.566;2022-12-29T12:48:47;2.40;;;0.80;;
38609;SDS011;24367;51.640;9.566;2022-12-29T12:51:23;1.55;;;0.60;;
38609;SDS011;24367;51.640;9.566;2022-12-29T12:53:59;1.90;;;0.60;;
38609;SDS011;24367;51.640;9.566;2022-12-29T12:56:39;1.85;;;0.50;;
38609;SDS011;24367;51.640;9.566;2022-12-29T12:59:15;4.82;;;0.63;;
38609;SDS011;24367;51.640;9.566;2022-12-29T13:01:50;0.98;;;0.50;;
38609;SDS011;24367;51.640;9.566;2022-12-29T13:04:32;1.10;;;0.60;;
38609;SDS011;24367;51.640;9.566;2022-12-29T13:07:12;3.30;;;0.82;;
38609;SDS011;24367;51.640;9.566;2022-12-29T13:09:44;1.42;;;0.52;;
38609;SDS011;24367;51.640;9.566;2022-12-29T13:12:19;1.15;;;0.63;;
38609;SDS011;24367;51.640;9.566;2022-12-29T13:14:56;3.20;;;0.98;;
38609;SDS011;24367;51.640;9.566;2022-12-29T13:17:30;1.92;;;0.73;;
38609;SDS011;24367;51.640;9.566;2022-12-29T13:20:05;2.42;;;0.73;;
38609;SDS011;24367;51.640;9.566;2022-12-29T13:22:38;1.30;;;0.70;;
38609;SDS011;24367;51.640;9.566;2022-12-29T13:25:21;3.13;;;0.77;;
38609;SDS011;24367;51.640;9.566;2022-12-29T13:27:53;1.80;;;0.82;;
38609;SDS011;24367;51.640;9.566;2022-12-29T13:30:22;1.23;;;0.60;;
38609;SDS011;24367;51.640;9.566;2022-12-29T13:32:55;2.95;;;0.68;;
38609;SDS011;24367;51.640;9.566;2022-12-29T13:35:32;2.85;;;0.80;;
38609;SDS011;24367;51.640;9.566;2022-12-29T13:38:09;1.25;;;0.73;;
38609;SDS011;24367;51.640;9.566;2022-12-29T13:40:38;1.45;;;0.60;;
38609;SDS011;24367;51.640;9.566;2022-12-29T13:43:08;5.00;;;0.60;;
38609;SDS011;24367;51.640;9.566;2022-12-29T13:45:34;3.35;;;1.02;;
38609;SDS011;24367;51.640;9.566;2022-12-29T13:48:03;1.92;;;0.70;;
38609;SDS011;24367;51.640;9.566;2022-12-29T13:50:33;3.20;;;0.70;;
38609;SDS011;24367;51.640;9.566;2022-12-29T13:53:02;3.95;;;0.82;;
38609;SDS011;24367;51.640;9.566;2022-12-29T13:55:34;1.75;;;0.60;;
38609;SDS011;24367;51.640;9.566;2022-12-29T13:58:04;7.72;;;1.00;;
38609;SDS011;24367;51.640;9.566;2022-12-29T14:00:38;4.38;;;0.75;;
38609;SDS011;24367;51.640;9.566;2022-12-29T14:03:19;3.17;;;0.70;;
38609;SDS011;24367;51.640;9.566;2022-12-29T14:06:04;2.58;;;0.70;;
38609;SDS011;24367;51.640;9.566;2022-12-29T14:08:37;4.30;;;0.60;;
38609;SDS011;24367;51.640;9.566;2022-12-29T14:11:05;3.42;;;0.82;;
38609;SDS011;24367;51.640;9.566;2022-12-29T14:13:33;4.57;;;0.75;;
38609;SDS011;24367;51.640;9.566;2022-12-29T14:16:04;3.78;;;1.02;;
38609;SDS011;24367;51.640;9.566;2022-12-29T14:18:31;4.50;;;0.77;;
38609;SDS011;24367;51.640;9.566;2022-12-29T14:20:59;3.60;;;0.80;;
38609;SDS011;24367;51.640;9.566;2022-12-29T14:23:35;2.53;;;0.70;;
38609;SDS011;24367;51.640;9.566;2022-12-29T14:26:12;1.35;;;0.60;;
38609;SDS011;24367;51.640;9.566;2022-12-29T14:28:43;2.58;;;0.52;;
38609;SDS011;24367;51.640;9.566;2022-12-29T14:36:55;2.83;;;0.70;;
38609;SDS011;24367;51.640;9.566;2022-12-29T14:39:32;1.92;;;0.80;;
38609;SDS011;24367;51.640;9.566;2022-12-29T14:42:01;2.92;;;0.70;;
38609;SDS011;24367;51.640;9.566;2022-12-29T14:44:30;3.38;;;0.70;;
38609;SDS011;24367;51.640;9.566;2022-12-29T14:46:57;2.75;;;0.65;;
38609;SDS011;24367;51.640;9.566;2022-12-29T14:49:26;3.22;;;0.80;;
38609;SDS011;24367;51.640;9.566;2022-12-29T14:51:55;1.75;;;0.60;;
38609;SDS011;24367;51.640;9.566;2022-12-29T14:57:27;7.53;;;0.95;;
38609;SDS011;24367;51.640;9.566;2022-12-29T14:59:58;4.82;;;0.90;;
38609;SDS011;24367;51.640;9.566;2022-12-29T15:02:32;4.10;;;0.73;;
38609;SDS011;24367;51.640;9.566;2022-12-29T15:05:00;3.88;;;1.23;;
38609;SDS011;24367;51.640;9.566;2022-12-29T15:07:29;4.72;;;1.10;;
38609;SDS011;24367;51.640;9.566;2022-12-29T15:09:58;5.57;;;1.33;;
38609;SDS011;24367;51.640;9.566;2022-12-29T15:12:30;4.85;;;1.02;;
38609;SDS011;24367;51.640;9.566;2022-12-29T15:14:59;4.13;;;1.00;;
38609;SDS011;24367;51.640;9.566;2022-12-29T15:17:27;6.13;;;1.17;;
38609;SDS011;24367;51.640;9.566;2022-12-29T15:19:55;6.78;;;1.10;;
38609;SDS011;24367;51.640;9.566;2022-12-29T15:22:23;6.47;;;1.38;;
38609;SDS011;24367;51.640;9.566;2022-12-29T15:24:50;7.82;;;1.17;;
38609;SDS011;24367;51.640;9.566;2022-12-29T15:27:20;7.70;;;1.48;;
38609;SDS011;24367;51.640;9.566;2022-12-29T15:29:48;5.35;;;1.17;;
38609;SDS011;24367;51.640;9.566;2022-12-29T15:32:22;7.90;;;1.23;;